sensor_id;sensor_type;location;lat;lon;timestamp;pressure;altitude;pressure_sealevel;temperature;humidity
41862;BME280;27537;57.134;-2.136;2022-08-19T00:01:28;99917.16;;;15.00;100.00
41862;BME280;27537;57.134;-2.136;2022-08-19T00:04:00;99917.16;;;14.88;100.00
41862;BME280;27537;57.134;-2.136;2022-08-19T00:06:28;99927.72;;;14.88;100.00
41862;BME280;27537;57.134;-2.136;2022-08-19T00:08:56;99925.59;;;14.80;100.00
41862;BME280;27537;57.134;-2.136;2022-08-19T00:11:24;99936.34;;;14.90;100.00
41862;BME280;27537;57.134;-2.136;2022-08-19T00:13:53;99917.66;;;14.67;100.00
41862;BME280;27537;57.134;-2.136;2022-08-19T00:16:23;99915.00;;;14.54;100.00
41862;BME280;27537;57.134;-2.136;2022-08-19T00:18:53;99895.38;;;14.46;100.00
41862;BME280;27537;57.134;-2.136;2022-08-19T00:21:20;99913.47;;;14.65;100.00
41862;BME280;27537;57.134;-2.136;2022-08-19T00:23:47;99911.00;;;14.49;100.00
41862;BME280;27537;57.134;-2.136;2022-08-19T00:26:14;99911.94;;;14.48;100.00
41862;BME280;27537;57.134;-2.136;2022-08-19T00:28:41;99910.56;;;14.42;100.00
41862;BME280;27537;57.134;-2.136;2022-08-19T00:31:08;99942.78;;;14.46;100.00
41862;BME280;27537;57.134;-2.136;2022-08-19T00:33:35;99946.25;;;14.46;100.00
41862;BME280;27537;57.134;-2.136;2022-08-19T00:36:06;99946.25;;;14.33;100.00
41862;BME280;27537;57.134;-2.136;2022-08-19T00:38:34;99962.13;;;14.32;100.00
41862;BME280;27537;57.134;-2.136;2022-08-19T00:41:05;99962.03;;;14.33;100.00
41862;BME280;27537;57.134;-2.136;2022-08-19T00:43:32;99971.72;;;14.33;100.00
41862;BME280;27537;57.134;-2.136;2022-08-19T00:45:59;99982.03;;;14.36;100.00
41862;BME280;27537;57.134;-2.136;2022-08-19T00:48:28;99975.41;;;14.03;100.00
41862;BME280;27537;57.134;-2.136;2022-08-19T00:50:55;99969.22;;;13.90;100.00
41862;BME280;27537;57.134;-2.136;2022-08-19T00:53:24;99965.19;;;13.84;100.00
41862;BME280;27537;57.134;-2.136;2022-08-19T00:55:55;99979.03;;;13.73;100.00
41862;BME280;27537;57.134;-2.136;2022-08-19T00:58:28;99967.50;;;13.47;100.00
41862;BME280;27537;57.134;-2.136;2022-08-19T01:00:56;99963.66;;;13.38;100.00
41862;BME280;27537;57.134;-2.136;2022-08-19T01:03:23;99973.81;;;13.44;100.00
41862;BME280;27537;57.134;-2.136;2022-08-19T01:05:52;99972.00;;;13.45;100.00
41862;BME280;27537;57.134;-2.136;2022-08-19T01:08:21;99964.03;;;13.61;100.00
41862;BME280;27537;57.134;-2.136;2022-08-19T01:10:51;99966.38;;;13.51;100.00
41862;BME280;27537;57.134;-2.136;2022-08-19T01:13:22;99976.16;;;13.63;100.00
41862;BME280;27537;57.134;-2.136;2022-08-19T01:15:53;99978.78;;;13.63;100.00
41862;BME280;27537;57.134;-2.136;2022-08-19T01:18:21;99982.16;;;13.51;100.00
41862;BME280;27537;57.134;-2.136;2022-08-19T01:20:50;99987.53;;;13.50;100.00
41862;BME280;27537;57.134;-2.136;2022-08-19T01:23:18;99984.88;;;13.64;100.00
41862;BME280;27537;57.134;-2.136;2022-08-19T01:25:48;99996.97;;;13.66;100.00
41862;BME280;27537;57.134;-2.136;2022-08-19T01:28:23;99998.00;;;13.78;100.00
41862;BME280;27537;57.134;-2.136;2022-08-19T01:31:06;99998.69;;;13.67;100.00
41862;BME280;27537;57.134;-2.136;2022-08-19T01:33:33;99993.78;;;13.61;100.00
41862;BME280;27537;57.134;-2.136;2022-08-19T01:36:12;100007.81;;;13.47;100.00
41862;BME280;27537;57.134;-2.136;2022-08-19T01:38:42;100000.38;;;13.40;100.00
41862;BME280;27537;57.134;-2.136;2022-08-19T01:41:12;100006.25;;;13.29;100.00
41862;BME280;27537;57.134;-2.136;2022-08-19T01:43:40;99996.47;;;13.17;100.00
41862;BME280;27537;57.134;-2.136;2022-08-19T01:46:27;99993.56;;;13.07;100.00
41862;BME280;27537;57.134;-2.136;2022-08-19T01:48:54;99993.06;;;12.86;100.00
41862;BME280;27537;57.134;-2.136;2022-08-19T01:51:21;99997.09;;;12.91;100.00
41862;BME280;27537;57.134;-2.136;2022-08-19T01:53:49;99986.50;;;12.93;100.00
41862;BME280;27537;57.134;-2.136;2022-08-19T01:56:17;99994.88;;;13.00;100.00
41862;BME280;27537;57.134;-2.136;2022-08-19T01:58:49;100007.16;;;12.99;100.00
41862;BME280;27537;57.134;-2.136;2022-08-19T02:01:17;100006.72;;;13.07;100.00
41862;BME280;27537;57.134;-2.136;2022-08-19T02:03:45;100009.66;;;12.86;100.00
41862;BME280;27537;57.134;-2.136;2022-08-19T02:06:12;100003.81;;;12.81;100.00
41862;BME280;27537;57.134;-2.136;2022-08-19T02:08:40;99986.56;;;12.77;100.00
41862;BME280;27537;57.134;-2.136;2022-08-19T02:11:07;99997.00;;;12.93;100.00
41862;BME280;27537;57.134;-2.136;2022-08-19T02:13:34;100010.94;;;13.24;100.00
41862;BME280;27537;57.134;-2.136;2022-08-19T02:16:00;99998.69;;;12.94;100.00
41862;BME280;27537;57.134;-2.136;2022-08-19T02:18:29;100022.56;;;13.05;100.00
41862;BME280;27537;57.134;-2.136;2022-08-19T02:20:56;100019.91;;;12.91;100.00
41862;BME280;27537;57.134;-2.136;2022-08-19T02:23:23;100015.78;;;13.01;100.00
41862;BME280;27537;57.134;-2.136;2022-08-19T02:25:51;100022.91;;;12.99;100.00
41862;BME280;27537;57.134;-2.136;2022-08-19T02:28:18;100010.25;;;12.91;100.00
41862;BME280;27537;57.134;-2.136;2022-08-19T02:30:46;100008.25;;;12.81;100.00
41862;BME280;27537;57.134;-2.136;2022-08-19T02:33:13;100007.94;;;12.85;100.00
41862;BME280;27537;57.134;-2.136;2022-08-19T02:35:44;100018.00;;;12.79;100.00
41862;BME280;27537;57.134;-2.136;2022-08-19T02:38:12;100019.59;;;12.81;100.00
41862;BME280;27537;57.134;-2.136;2022-08-19T02:41:00;100013.09;;;12.72;100.00
41862;BME280;27537;57.134;-2.136;2022-08-19T02:43:29;100010.91;;;12.65;100.00
41862;BME280;27537;57.134;-2.136;2022-08-19T02:46:00;100027.34;;;12.68;100.00
41862;BME280;27537;57.134;-2.136;2022-08-19T02:48:27;100014.78;;;12.73;100.00
41862;BME280;27537;57.134;-2.136;2022-08-19T02:50:54;100016.88;;;12.52;100.00
41862;BME280;27537;57.134;-2.136;2022-08-19T02:53:26;100028.47;;;12.64;100.00
41862;BME280;27537;57.134;-2.136;2022-08-19T02:55:53;100028.88;;;12.57;100.00
41862;BME280;27537;57.134;-2.136;2022-08-19T02:58:21;100027.69;;;12.46;100.00
41862;BME280;27537;57.134;-2.136;2022-08-19T03:00:54;100041.69;;;12.47;100.00
41862;BME280;27537;57.134;-2.136;2022-08-19T03:03:21;100029.13;;;12.22;100.00
41862;BME280;27537;57.134;-2.136;2022-08-19T03:05:48;100029.00;;;12.07;100.00
41862;BME280;27537;57.134;-2.136;2022-08-19T03:08:23;100023.88;;;12.22;100.00
41862;BME280;27537;57.134;-2.136;2022-08-19T03:10:50;100043.41;;;12.16;100.00
41862;BME280;27537;57.134;-2.136;2022-08-19T03:13:19;100037.91;;;12.05;100.00
41862;BME280;27537;57.134;-2.136;2022-08-19T03:15:47;100045.78;;;12.21;100.00
41862;BME280;27537;57.134;-2.136;2022-08-19T03:18:15;100046.97;;;12.15;100.00
41862;BME280;27537;57.134;-2.136;2022-08-19T03:20:51;100053.66;;;12.05;100.00
41862;BME280;27537;57.134;-2.136;2022-08-19T03:23:20;100050.94;;;11.90;100.00
41862;BME280;27537;57.134;-2.136;2022-08-19T03:25:49;100057.78;;;11.93;100.00
41862;BME280;27537;57.134;-2.136;2022-08-19T03:28:37;100048.31;;;12.06;100.00
41862;BME280;27537;57.134;-2.136;2022-08-19T03:31:11;100053.66;;;12.21;100.00
41862;BME280;27537;57.134;-2.136;2022-08-19T03:33:59;100032.56;;;12.06;100.00
41862;BME280;27537;57.134;-2.136;2022-08-19T03:36:26;100040.38;;;12.24;100.00
41862;BME280;27537;57.134;-2.136;2022-08-19T03:38:57;100047.81;;;12.15;100.00
41862;BME280;27537;57.134;-2.136;2022-08-19T03:41:27;100047.81;;;12.15;100.00
41862;BME280;27537;57.134;-2.136;2022-08-19T03:44:10;100046.09;;;12.14;100.00
41862;BME280;27537;57.134;-2.136;2022-08-19T03:46:51;100055.00;;;11.96;100.00
41862;BME280;27537;57.134;-2.136;2022-08-19T03:49:19;100051.97;;;11.86;100.00
41862;BME280;27537;57.134;-2.136;2022-08-19T03:51:54;100049.25;;;12.05;100.00
41862;BME280;27537;57.134;-2.136;2022-08-19T03:54:23;100052.91;;;12.19;100.00
41862;BME280;27537;57.134;-2.136;2022-08-19T03:56:53;100063.72;;;12.12;100.00
41862;BME280;27537;57.134;-2.136;2022-08-19T03:59:27;100057.78;;;12.09;100.00
41862;BME280;27537;57.134;-2.136;2022-08-19T04:01:55;100057.78;;;11.93;100.00
41862;BME280;27537;57.134;-2.136;2022-08-19T04:04:23;100053.06;;;11.82;100.00
41862;BME280;27537;57.134;-2.136;2022-08-19T04:06:54;100054.69;;;11.85;100.00
41862;BME280;27537;57.134;-2.136;2022-08-19T04:09:21;100072.31;;;11.99;100.00
41862;BME280;27537;57.134;-2.136;2022-08-19T04:11:50;100067.97;;;11.82;100.00
41862;BME280;27537;57.134;-2.136;2022-08-19T04:14:24;100074.91;;;11.83;100.00
41862;BME280;27537;57.134;-2.136;2022-08-19T04:16:52;100087.38;;;11.95;100.00
41862;BME280;27537;57.134;-2.136;2022-08-19T04:19:19;100078.16;;;11.70;100.00
41862;BME280;27537;57.134;-2.136;2022-08-19T04:21:48;100094.72;;;11.88;100.00
41862;BME280;27537;57.134;-2.136;2022-08-19T04:24:16;100087.34;;;12.12;100.00
41862;BME280;27537;57.134;-2.136;2022-08-19T04:26:44;100073.22;;;12.15;100.00
41862;BME280;27537;57.134;-2.136;2022-08-19T04:29:15;100084.72;;;12.28;100.00
41862;BME280;27537;57.134;-2.136;2022-08-19T04:31:43;100075.31;;;12.24;100.00
41862;BME280;27537;57.134;-2.136;2022-08-19T04:34:13;100103.75;;;12.32;100.00
41862;BME280;27537;57.134;-2.136;2022-08-19T04:36:44;100098.09;;;12.24;100.00
41862;BME280;27537;57.134;-2.136;2022-08-19T04:39:15;100095.72;;;12.19;100.00
41862;BME280;27537;57.134;-2.136;2022-08-19T04:41:43;100089.44;;;12.38;100.00
41862;BME280;27537;57.134;-2.136;2022-08-19T04:44:34;100104.53;;;12.34;100.00
41862;BME280;27537;57.134;-2.136;2022-08-19T04:47:05;100091.25;;;12.37;100.00
41862;BME280;27537;57.134;-2.136;2022-08-19T04:49:36;100096.56;;;12.35;100.00
41862;BME280;27537;57.134;-2.136;2022-08-19T04:52:03;100086.34;;;12.47;100.00
41862;BME280;27537;57.134;-2.136;2022-08-19T04:54:30;100076.84;;;12.44;100.00
41862;BME280;27537;57.134;-2.136;2022-08-19T04:57:06;100094.88;;;12.50;100.00
41862;BME280;27537;57.134;-2.136;2022-08-19T04:59:34;100090.22;;;12.24;100.00
41862;BME280;27537;57.134;-2.136;2022-08-19T05:02:02;100102.25;;;12.28;100.00
41862;BME280;27537;57.134;-2.136;2022-08-19T05:04:29;100085.38;;;12.32;100.00
41862;BME280;27537;57.134;-2.136;2022-08-19T05:06:57;100099.09;;;12.37;100.00
41862;BME280;27537;57.134;-2.136;2022-08-19T05:09:26;100092.56;;;12.60;100.00
41862;BME280;27537;57.134;-2.136;2022-08-19T05:12:13;100105.31;;;12.68;100.00
41862;BME280;27537;57.134;-2.136;2022-08-19T05:14:40;100111.81;;;12.77;100.00
41862;BME280;27537;57.134;-2.136;2022-08-19T05:17:07;100101.19;;;12.78;100.00
41862;BME280;27537;57.134;-2.136;2022-08-19T05:19:53;100118.22;;;12.87;100.00
41862;BME280;27537;57.134;-2.136;2022-08-19T05:22:38;100109.59;;;12.69;100.00
41862;BME280;27537;57.134;-2.136;2022-08-19T05:25:12;100109.00;;;12.80;100.00
41862;BME280;27537;57.134;-2.136;2022-08-19T05:27:40;100112.09;;;13.02;100.00
41862;BME280;27537;57.134;-2.136;2022-08-19T05:30:09;100106.41;;;12.94;100.00
41862;BME280;27537;57.134;-2.136;2022-08-19T05:32:37;100080.00;;;12.81;100.00
41862;BME280;27537;57.134;-2.136;2022-08-19T05:35:05;100104.47;;;12.98;100.00
41862;BME280;27537;57.134;-2.136;2022-08-19T05:37:32;100120.13;;;12.99;100.00
41862;BME280;27537;57.134;-2.136;2022-08-19T05:39:58;100125.72;;;13.09;100.00
41862;BME280;27537;57.134;-2.136;2022-08-19T05:42:25;100123.09;;;13.09;100.00
41862;BME280;27537;57.134;-2.136;2022-08-19T05:44:54;100080.84;;;12.82;100.00
41862;BME280;27537;57.134;-2.136;2022-08-19T05:47:22;100082.97;;;12.91;100.00
41862;BME280;27537;57.134;-2.136;2022-08-19T05:49:49;100053.81;;;12.80;100.00
41862;BME280;27537;57.134;-2.136;2022-08-19T05:52:18;100086.19;;;12.96;100.00
41862;BME280;27537;57.134;-2.136;2022-08-19T05:54:52;100100.44;;;13.06;100.00
41862;BME280;27537;57.134;-2.136;2022-08-19T05:57:21;100121.34;;;13.24;100.00
41862;BME280;27537;57.134;-2.136;2022-08-19T05:59:48;100120.31;;;13.42;100.00
41862;BME280;27537;57.134;-2.136;2022-08-19T06:02:27;100130.84;;;13.57;100.00
41862;BME280;27537;57.134;-2.136;2022-08-19T06:04:54;100132.34;;;13.61;100.00
41862;BME280;27537;57.134;-2.136;2022-08-19T06:07:21;100144.50;;;13.78;100.00
41862;BME280;27537;57.134;-2.136;2022-08-19T06:09:48;100113.47;;;13.54;100.00
41862;BME280;27537;57.134;-2.136;2022-08-19T06:12:28;100128.38;;;13.39;100.00
41862;BME280;27537;57.134;-2.136;2022-08-19T06:14:55;100111.56;;;13.42;100.00
41862;BME280;27537;57.134;-2.136;2022-08-19T06:17:30;100130.22;;;13.67;100.00
41862;BME280;27537;57.134;-2.136;2022-08-19T06:19:58;100110.31;;;13.33;100.00
41862;BME280;27537;57.134;-2.136;2022-08-19T06:22:25;100146.97;;;13.51;100.00
41862;BME280;27537;57.134;-2.136;2022-08-19T06:24:53;100146.47;;;13.60;100.00
41862;BME280;27537;57.134;-2.136;2022-08-19T06:27:21;100144.50;;;13.63;100.00
41862;BME280;27537;57.134;-2.136;2022-08-19T06:29:48;100108.94;;;13.42;100.00
41862;BME280;27537;57.134;-2.136;2022-08-19T06:32:16;100147.41;;;13.88;100.00
41862;BME280;27537;57.134;-2.136;2022-08-19T06:34:44;100130.72;;;14.44;100.00
41862;BME280;27537;57.134;-2.136;2022-08-19T06:37:11;100107.88;;;15.27;100.00
41862;BME280;27537;57.134;-2.136;2022-08-19T06:39:40;100133.00;;;15.45;100.00
41862;BME280;27537;57.134;-2.136;2022-08-19T06:42:08;100161.81;;;16.38;100.00
41862;BME280;27537;57.134;-2.136;2022-08-19T06:44:39;100115.50;;;16.08;100.00
41862;BME280;27537;57.134;-2.136;2022-08-19T06:47:18;100161.09;;;16.36;100.00
41862;BME280;27537;57.134;-2.136;2022-08-19T06:49:55;100104.66;;;16.37;100.00
41862;BME280;27537;57.134;-2.136;2022-08-19T06:52:33;100138.13;;;17.11;100.00
41862;BME280;27537;57.134;-2.136;2022-08-19T06:55:02;100154.50;;;17.51;100.00
41862;BME280;27537;57.134;-2.136;2022-08-19T06:57:32;100130.91;;;17.59;100.00
41862;BME280;27537;57.134;-2.136;2022-08-19T06:59:59;100138.09;;;17.93;100.00
41862;BME280;27537;57.134;-2.136;2022-08-19T07:02:26;100153.25;;;18.02;100.00
41862;BME280;27537;57.134;-2.136;2022-08-19T07:04:53;100118.91;;;17.78;100.00
41862;BME280;27537;57.134;-2.136;2022-08-19T07:07:20;100140.44;;;17.62;100.00
41862;BME280;27537;57.134;-2.136;2022-08-19T07:09:50;100166.56;;;17.78;100.00
41862;BME280;27537;57.134;-2.136;2022-08-19T07:12:31;100129.75;;;17.86;100.00
41862;BME280;27537;57.134;-2.136;2022-08-19T07:15:05;100140.13;;;18.34;100.00
41862;BME280;27537;57.134;-2.136;2022-08-19T07:17:34;100159.63;;;19.00;100.00
41862;BME280;27537;57.134;-2.136;2022-08-19T07:20:06;100165.59;;;18.69;100.00
41862;BME280;27537;57.134;-2.136;2022-08-19T07:22:37;100163.53;;;18.73;100.00
41862;BME280;27537;57.134;-2.136;2022-08-19T07:25:06;100150.09;;;19.29;100.00
41862;BME280;27537;57.134;-2.136;2022-08-19T07:27:33;100176.34;;;19.44;100.00
41862;BME280;27537;57.134;-2.136;2022-08-19T07:30:00;100166.00;;;19.08;100.00
41862;BME280;27537;57.134;-2.136;2022-08-19T07:32:27;100147.31;;;19.10;100.00
41862;BME280;27537;57.134;-2.136;2022-08-19T07:34:55;100165.75;;;19.11;100.00
41862;BME280;27537;57.134;-2.136;2022-08-19T07:37:23;100177.19;;;19.44;100.00
41862;BME280;27537;57.134;-2.136;2022-08-19T07:39:58;100192.31;;;19.86;100.00
41862;BME280;27537;57.134;-2.136;2022-08-19T07:42:25;100210.91;;;20.17;100.00
41862;BME280;27537;57.134;-2.136;2022-08-19T07:44:52;100192.03;;;19.68;100.00
41862;BME280;27537;57.134;-2.136;2022-08-19T07:47:19;100190.69;;;19.95;100.00
41862;BME280;27537;57.134;-2.136;2022-08-19T07:50:09;100207.69;;;20.44;100.00
41862;BME280;27537;57.134;-2.136;2022-08-19T07:52:37;100155.63;;;20.41;100.00
41862;BME280;27537;57.134;-2.136;2022-08-19T07:55:14;100203.22;;;20.75;100.00
41862;BME280;27537;57.134;-2.136;2022-08-19T07:58:01;100163.53;;;20.62;100.00
41862;BME280;27537;57.134;-2.136;2022-08-19T08:00:30;100186.16;;;20.88;100.00
41862;BME280;27537;57.134;-2.136;2022-08-19T08:02:57;100186.44;;;20.54;100.00
41862;BME280;27537;57.134;-2.136;2022-08-19T08:05:23;100161.22;;;20.89;100.00
41862;BME280;27537;57.134;-2.136;2022-08-19T08:08:11;100198.94;;;21.42;100.00
41862;BME280;27537;57.134;-2.136;2022-08-19T08:10:57;100193.16;;;21.08;100.00
41862;BME280;27537;57.134;-2.136;2022-08-19T08:13:25;100209.97;;;21.28;95.49
41862;BME280;27537;57.134;-2.136;2022-08-19T08:15:52;100166.97;;;20.94;100.00
41862;BME280;27537;57.134;-2.136;2022-08-19T08:18:24;100212.91;;;21.15;100.00
41862;BME280;27537;57.134;-2.136;2022-08-19T08:20:56;100222.72;;;20.95;99.15
41862;BME280;27537;57.134;-2.136;2022-08-19T08:23:23;100196.81;;;20.57;100.00
41862;BME280;27537;57.134;-2.136;2022-08-19T08:25:56;100193.72;;;20.52;100.00
41862;BME280;27537;57.134;-2.136;2022-08-19T08:28:24;100170.41;;;20.34;100.00
41862;BME280;27537;57.134;-2.136;2022-08-19T08:30:56;100218.06;;;20.16;100.00
41862;BME280;27537;57.134;-2.136;2022-08-19T08:33:25;100210.59;;;20.31;100.00
41862;BME280;27537;57.134;-2.136;2022-08-19T08:36:06;100214.13;;;19.89;100.00
41862;BME280;27537;57.134;-2.136;2022-08-19T08:38:34;100209.28;;;20.56;100.00
41862;BME280;27537;57.134;-2.136;2022-08-19T08:43:49;100194.78;;;20.29;100.00
41862;BME280;27537;57.134;-2.136;2022-08-19T08:46:26;100220.06;;;20.24;100.00
41862;BME280;27537;57.134;-2.136;2022-08-19T08:52:03;100213.16;;;20.42;95.18
41862;BME280;27537;57.134;-2.136;2022-08-19T08:54:44;100179.75;;;20.19;92.96
41862;BME280;27537;57.134;-2.136;2022-08-19T09:00:15;100225.91;;;19.97;99.06
41862;BME280;27537;57.134;-2.136;2022-08-19T09:02:43;100197.00;;;19.61;100.00
41862;BME280;27537;57.134;-2.136;2022-08-19T09:05:18;100192.19;;;19.87;100.00
41862;BME280;27537;57.134;-2.136;2022-08-19T09:08:08;100225.41;;;20.03;100.00
41862;BME280;27537;57.134;-2.136;2022-08-19T09:13:26;100232.38;;;19.41;100.00
41862;BME280;27537;57.134;-2.136;2022-08-19T09:16:16;100223.78;;;20.12;100.00
41862;BME280;27537;57.134;-2.136;2022-08-19T09:18:53;100215.97;;;20.51;98.98
41862;BME280;27537;57.134;-2.136;2022-08-19T09:21:21;100169.44;;;19.73;100.00
41862;BME280;27537;57.134;-2.136;2022-08-19T09:23:58;100189.59;;;20.38;100.00
41862;BME280;27537;57.134;-2.136;2022-08-19T09:26:25;100156.34;;;20.03;97.08
41862;BME280;27537;57.134;-2.136;2022-08-19T09:29:13;100155.56;;;19.49;100.00
41862;BME280;27537;57.134;-2.136;2022-08-19T09:31:40;100189.72;;;19.96;100.00
41862;BME280;27537;57.134;-2.136;2022-08-19T09:34:06;100170.31;;;19.42;100.00
41862;BME280;27537;57.134;-2.136;2022-08-19T09:36:48;100201.09;;;20.07;100.00
41862;BME280;27537;57.134;-2.136;2022-08-19T09:39:21;100163.41;;;19.92;100.00
41862;BME280;27537;57.134;-2.136;2022-08-19T09:41:48;100218.41;;;20.33;99.40
41862;BME280;27537;57.134;-2.136;2022-08-19T09:44:17;100208.25;;;20.78;95.33
41862;BME280;27537;57.134;-2.136;2022-08-19T09:46:44;100180.84;;;20.97;93.32
41862;BME280;27537;57.134;-2.136;2022-08-19T09:49:14;100200.88;;;21.11;91.20
41862;BME280;27537;57.134;-2.136;2022-08-19T09:51:43;100173.81;;;21.16;91.28
41862;BME280;27537;57.134;-2.136;2022-08-19T09:54:17;100215.84;;;21.02;93.48
41862;BME280;27537;57.134;-2.136;2022-08-19T09:56:49;100167.94;;;20.42;87.18
41862;BME280;27537;57.134;-2.136;2022-08-19T09:59:16;100210.56;;;21.51;85.16
41862;BME280;27537;57.134;-2.136;2022-08-19T10:01:43;100204.66;;;21.28;82.65
41862;BME280;27537;57.134;-2.136;2022-08-19T10:04:11;100220.94;;;21.54;78.73
41862;BME280;27537;57.134;-2.136;2022-08-19T10:06:46;100186.38;;;20.34;77.94
41862;BME280;27537;57.134;-2.136;2022-08-19T10:09:18;100232.72;;;20.41;82.05
41862;BME280;27537;57.134;-2.136;2022-08-19T10:12:00;100199.59;;;20.15;86.52
41862;BME280;27537;57.134;-2.136;2022-08-19T10:14:28;100159.19;;;19.69;92.00
41862;BME280;27537;57.134;-2.136;2022-08-19T10:16:55;100172.88;;;19.85;93.73
41862;BME280;27537;57.134;-2.136;2022-08-19T10:19:24;100178.88;;;20.49;94.29
41862;BME280;27537;57.134;-2.136;2022-08-19T10:21:52;100149.56;;;20.70;90.73
41862;BME280;27537;57.134;-2.136;2022-08-19T10:24:21;100197.19;;;20.93;92.45
41862;BME280;27537;57.134;-2.136;2022-08-19T10:26:50;100195.22;;;20.85;85.43
41862;BME280;27537;57.134;-2.136;2022-08-19T10:29:24;100155.19;;;21.16;83.35
41862;BME280;27537;57.134;-2.136;2022-08-19T10:32:00;100156.44;;;20.92;82.08
41862;BME280;27537;57.134;-2.136;2022-08-19T10:34:29;100191.91;;;21.22;83.41
41862;BME280;27537;57.134;-2.136;2022-08-19T10:36:57;100176.47;;;20.86;81.02
41862;BME280;27537;57.134;-2.136;2022-08-19T10:39:31;100158.56;;;21.18;79.08
41862;BME280;27537;57.134;-2.136;2022-08-19T10:42:09;100179.28;;;21.24;77.50
41862;BME280;27537;57.134;-2.136;2022-08-19T10:44:40;100184.78;;;21.13;77.77
41862;BME280;27537;57.134;-2.136;2022-08-19T10:47:07;100167.53;;;21.07;80.33
41862;BME280;27537;57.134;-2.136;2022-08-19T10:49:52;100180.41;;;21.12;80.10
41862;BME280;27537;57.134;-2.136;2022-08-19T10:52:43;100206.50;;;21.37;81.90
41862;BME280;27537;57.134;-2.136;2022-08-19T10:55:20;100169.22;;;21.28;80.75
41862;BME280;27537;57.134;-2.136;2022-08-19T10:58:19;100201.44;;;21.34;81.06
41862;BME280;27537;57.134;-2.136;2022-08-19T11:00:57;100207.03;;;21.31;82.66
41862;BME280;27537;57.134;-2.136;2022-08-19T11:03:25;100186.00;;;20.89;79.94
41862;BME280;27537;57.134;-2.136;2022-08-19T11:06:06;100208.97;;;21.00;83.63
41862;BME280;27537;57.134;-2.136;2022-08-19T11:08:34;100216.56;;;20.95;84.92
41862;BME280;27537;57.134;-2.136;2022-08-19T11:11:02;100212.97;;;20.34;86.74
41862;BME280;27537;57.134;-2.136;2022-08-19T11:13:32;100177.88;;;20.40;84.94
41862;BME280;27537;57.134;-2.136;2022-08-19T11:16:08;100217.22;;;20.87;84.10
41862;BME280;27537;57.134;-2.136;2022-08-19T11:18:41;100185.34;;;20.56;84.52
41862;BME280;27537;57.134;-2.136;2022-08-19T11:21:16;100221.53;;;20.69;85.85
41862;BME280;27537;57.134;-2.136;2022-08-19T11:23:48;100211.97;;;20.66;88.32
41862;BME280;27537;57.134;-2.136;2022-08-19T11:26:16;100213.53;;;20.69;86.61
41862;BME280;27537;57.134;-2.136;2022-08-19T11:28:44;100218.09;;;20.97;82.50
41862;BME280;27537;57.134;-2.136;2022-08-19T11:31:23;100196.72;;;20.68;81.56
41862;BME280;27537;57.134;-2.136;2022-08-19T11:33:56;100193.78;;;20.61;81.69
41862;BME280;27537;57.134;-2.136;2022-08-19T11:36:23;100161.50;;;20.04;83.41
41862;BME280;27537;57.134;-2.136;2022-08-19T11:38:51;100192.56;;;20.44;82.72
41862;BME280;27537;57.134;-2.136;2022-08-19T11:41:20;100202.38;;;20.84;82.32
41862;BME280;27537;57.134;-2.136;2022-08-19T11:43:47;100164.84;;;20.78;79.37
41862;BME280;27537;57.134;-2.136;2022-08-19T11:46:15;100220.34;;;21.02;79.39
41862;BME280;27537;57.134;-2.136;2022-08-19T11:48:43;100208.31;;;20.26;79.71
41862;BME280;27537;57.134;-2.136;2022-08-19T11:51:14;100210.25;;;20.55;80.80
41862;BME280;27537;57.134;-2.136;2022-08-19T11:53:42;100202.25;;;20.55;78.12
41862;BME280;27537;57.134;-2.136;2022-08-19T11:56:08;100201.81;;;20.50;76.59
41862;BME280;27537;57.134;-2.136;2022-08-19T11:58:35;100195.81;;;20.79;74.55
41862;BME280;27537;57.134;-2.136;2022-08-19T12:01:06;100221.28;;;20.81;73.63
41862;BME280;27537;57.134;-2.136;2022-08-19T12:03:34;100204.53;;;20.60;72.96
41862;BME280;27537;57.134;-2.136;2022-08-19T12:06:05;100178.41;;;20.75;72.34
41862;BME280;27537;57.134;-2.136;2022-08-19T12:08:32;100183.78;;;21.04;69.62
41862;BME280;27537;57.134;-2.136;2022-08-19T12:10:59;100222.28;;;21.00;70.45
41862;BME280;27537;57.134;-2.136;2022-08-19T12:13:30;100231.03;;;21.51;70.57
41862;BME280;27537;57.134;-2.136;2022-08-19T12:15:57;100206.38;;;21.39;71.65
41862;BME280;27537;57.134;-2.136;2022-08-19T12:18:25;100177.03;;;21.19;67.81
41862;BME280;27537;57.134;-2.136;2022-08-19T12:20:53;100217.34;;;20.85;67.54
41862;BME280;27537;57.134;-2.136;2022-08-19T12:23:23;100203.78;;;20.89;66.21
41862;BME280;27537;57.134;-2.136;2022-08-19T12:25:49;100183.34;;;21.09;66.43
41862;BME280;27537;57.134;-2.136;2022-08-19T12:28:23;100230.34;;;21.78;66.01
41862;BME280;27537;57.134;-2.136;2022-08-19T12:30:50;100160.91;;;21.70;63.80
41862;BME280;27537;57.134;-2.136;2022-08-19T12:33:19;100228.19;;;21.91;63.35
41862;BME280;27537;57.134;-2.136;2022-08-19T12:35:46;100191.47;;;21.85;63.53
41862;BME280;27537;57.134;-2.136;2022-08-19T12:38:13;100232.78;;;21.99;65.10
41862;BME280;27537;57.134;-2.136;2022-08-19T12:40:41;100211.97;;;21.65;63.69
41862;BME280;27537;57.134;-2.136;2022-08-19T12:43:11;100183.91;;;21.41;64.65
41862;BME280;27537;57.134;-2.136;2022-08-19T12:45:38;100223.88;;;21.71;64.24
41862;BME280;27537;57.134;-2.136;2022-08-19T12:48:06;100221.81;;;21.55;64.82
41862;BME280;27537;57.134;-2.136;2022-08-19T12:50:53;100217.13;;;21.28;65.20
41862;BME280;27537;57.134;-2.136;2022-08-19T12:53:20;100249.25;;;21.46;64.98
41862;BME280;27537;57.134;-2.136;2022-08-19T12:55:47;100243.63;;;21.97;62.02
41862;BME280;27537;57.134;-2.136;2022-08-19T12:58:13;100229.19;;;21.41;61.44
41862;BME280;27537;57.134;-2.136;2022-08-19T13:00:40;100176.63;;;21.24;61.58
41862;BME280;27537;57.134;-2.136;2022-08-19T13:03:07;100215.59;;;21.15;62.29
41862;BME280;27537;57.134;-2.136;2022-08-19T13:05:34;100237.19;;;21.41;61.76